Time;durP1;ratioP1;P1;durP2;ratioP2;P2;SDS_P1;SDS_P2;PMS_P1;PMS_P2;Temp;Humidity;BMP_temperature;BMP_pressure;BME280_temperature;BME280_humidity;BME280_pressure;Samples;Min_cycle;Max_cycle;Signal;HPM_P1;HPM_P2
2023/07/21 00:02:11;;;;;;;9.07;7.18;;;;;;;15.52;75.70;101146.06;5115392;28;20072;-64
2023/07/21 00:04:36;;;;;;;9.10;6.85;;;;;;;15.44;75.83;101141.28;5096688;28;20474;-64
2023/07/21 00:07:02;;;;;;;7.38;6.53;;;;;;;15.35;75.91;101134.88;5080045;28;20031;-64
2023/07/21 00:09:27;;;;;;;7.95;7.10;;;;;;;15.36;76.45;101139.25;5096597;28;20028;-64
2023/07/21 00:11:52;;;;;;;9.68;7.18;;;;;;;15.33;76.38;101133.28;5114764;28;20051;-64
2023/07/21 00:14:18;;;;;;;8.15;7.35;;;;;;;15.29;76.36;101135.31;5114957;28;20086;-64
2023/07/21 00:16:43;;;;;;;8.23;7.63;;;;;;;15.30;76.57;101138.88;5115306;28;20030;-64
2023/07/21 00:19:09;;;;;;;8.20;7.32;;;;;;;15.13;77.18;101124.94;5114903;28;20051;-64
2023/07/21 00:21:35;;;;;;;8.52;7.65;;;;;;;15.31;76.61;101124.50;5096651;28;20028;-64
2023/07/21 00:24:01;;;;;;;10.30;7.45;;;;;;;15.26;76.68;101122.16;5114461;28;20471;-64
2023/07/21 00:26:26;;;;;;;10.73;8.23;;;;;;;15.14;77.41;101123.13;5115021;28;20080;-64
2023/07/21 00:28:52;;;;;;;9.88;7.85;;;;;;;14.99;77.76;101125.16;5114623;28;20024;-64
2023/07/21 00:31:18;;;;;;;8.00;7.38;;;;;;;15.18;77.64;101124.59;5114653;28;20027;-64
2023/07/21 00:33:43;;;;;;;8.45;7.65;;;;;;;15.10;78.05;101121.66;5114461;28;20373;-64
2023/07/21 00:36:12;;;;;;;9.48;7.80;;;;;;;15.16;77.67;101119.34;5114556;28;20047;-64
2023/07/21 00:38:38;;;;;;;8.48;7.47;;;;;;;15.14;77.91;101117.75;5114153;28;20428;-64
2023/07/21 00:41:04;;;;;;;8.52;7.72;;;;;;;15.16;77.42;101113.16;5114696;28;20016;-64
2023/07/21 00:43:29;;;;;;;9.27;8.48;;;;;;;15.20;77.73;101117.28;5114900;28;20050;-64
2023/07/21 00:45:55;;;;;;;12.30;8.77;;;;;;;15.17;77.57;101120.19;5114609;28;20402;-64
2023/07/21 00:48:22;;;;;;;9.00;8.20;;;;;;;15.09;78.16;101122.63;5114228;28;20059;-64
2023/07/21 00:50:51;;;;;;;8.40;7.68;;;;;;;15.14;77.94;101117.75;5095726;28;20020;-64
2023/07/21 00:53:18;;;;;;;9.23;8.35;;;;;;;15.05;77.73;101110.44;5114244;28;20032;-64
2023/07/21 00:55:47;;;;;;;9.45;7.78;;;;;;;14.97;78.00;101111.91;5114530;28;20049;-64
2023/07/21 00:58:14;;;;;;;9.40;8.50;;;;;;;15.02;78.22;101111.53;5113679;28;20019;-64
2023/07/21 01:00:42;;;;;;;8.68;7.72;;;;;;;14.91;78.35;101111.50;5112655;28;20023;-64
2023/07/21 01:03:12;;;;;;;9.57;8.68;;;;;;;14.98;78.29;101094.00;5095913;28;20481;-64
2023/07/21 01:05:46;;;;;;;11.18;9.00;;;;;;;14.82;79.15;101101.50;5113797;28;20020;-64
2023/07/21 01:08:13;;;;;;;10.05;9.05;;;;;;;14.79;79.02;101091.88;5096135;28;20027;-64
2023/07/21 01:10:40;;;;;;;10.20;8.85;;;;;;;14.88;78.77;101098.34;5113662;28;20540;-64
2023/07/21 01:13:09;;;;;;;9.60;8.75;;;;;;;14.80;79.08;101090.09;5113702;28;20040;-64
2023/07/21 01:15:37;;;;;;;9.70;8.90;;;;;;;14.86;79.01;101089.59;5113910;28;20038;-64
2023/07/21 01:18:04;;;;;;;8.95;8.10;;;;;;;14.86;79.26;101085.09;5114009;28;20117;-63
2023/07/21 01:20:33;;;;;;;9.55;8.63;;;;;;;14.64;79.95;101091.22;5113552;28;20047;-64
2023/07/21 01:23:06;;;;;;;10.05;9.07;;;;;;;14.81;79.32;101087.28;5095449;28;20363;-64
2023/07/21 01:25:35;;;;;;;9.25;8.52;;;;;;;14.75;78.94;101083.25;5112776;28;20110;-64
2023/07/21 01:28:02;;;;;;;10.02;9.18;;;;;;;14.70;78.91;101079.19;5094532;28;20459;-63
2023/07/21 01:30:29;;;;;;;10.10;8.88;;;;;;;14.60;79.52;101076.38;5095129;28;20027;-64
2023/07/21 01:32:56;;;;;;;9.68;8.98;;;;;;;14.46;79.73;101076.53;5094846;28;20055;-64
2023/07/21 01:35:23;;;;;;;9.95;9.15;;;;;;;14.66;79.34;101080.41;5095378;28;20078;-64
2023/07/21 01:37:49;;;;;;;9.93;9.00;;;;;;;14.52;79.67;101071.59;5113336;28;20494;-64
2023/07/21 01:40:16;;;;;;;10.13;9.15;;;;;;;14.60;79.58;101071.03;5112931;28;20034;-64
2023/07/21 01:42:43;;;;;;;9.45;8.63;;;;;;;14.63;79.29;101069.94;5113282;28;20024;-63
2023/07/21 01:45:09;;;;;;;10.23;9.35;;;;;;;14.51;79.58;101069.91;5113307;28;20088;-64
2023/07/21 01:47:35;;;;;;;9.70;8.80;;;;;;;14.46;79.91;101068.53;5094962;28;20020;-63
2023/07/21 01:50:03;;;;;;;9.63;8.80;;;;;;;14.31;80.31;101063.34;5113145;28;20032;-64
2023/07/21 01:52:30;;;;;;;10.80;9.65;;;;;;;14.31;80.40;101066.03;5094881;28;20065;-63
2023/07/21 01:55:07;;;;;;;10.23;9.35;;;;;;;14.39;80.36;101064.63;5094397;28;20035;-64
2023/07/21 01:57:37;;;;;;;10.13;9.02;;;;;;;14.24;80.68;101061.28;5113263;28;20494;-64
2023/07/21 02:00:13;;;;;;;10.32;9.35;;;;;;;14.14;80.82;101053.06;5113078;28;20390;-64
2023/07/21 02:02:47;;;;;;;10.98;9.90;;;;;;;14.25;80.36;101061.13;5112775;28;20513;-63
2023/07/21 02:05:23;;;;;;;10.45;9.55;;;;;;;14.12;80.78;101051.47;5094818;28;20031;-63
2023/07/21 02:07:49;;;;;;;9.98;9.07;;;;;;;14.13;80.73;101040.66;5094750;28;20112;-64
2023/07/21 02:10:15;;;;;;;9.27;8.38;;;;;;;14.07;80.95;101047.31;5094192;28;20055;-64
2023/07/21 02:12:41;;;;;;;10.05;9.05;;;;;;;14.21;80.69;101048.13;5112208;28;20463;-63
2023/07/21 02:15:07;;;;;;;11.05;10.05;;;;;;;14.16;80.07;101047.59;5112888;28;20120;-64
2023/07/21 02:17:36;;;;;;;9.63;8.80;;;;;;;14.13;80.74;101050.50;5112636;28;20024;-63
2023/07/21 02:20:08;;;;;;;10.85;9.75;;;;;;;14.05;81.13;101043.06;5094371;28;20114;-64
2023/07/21 02:22:37;;;;;;;10.00;9.20;;;;;;;14.00;80.97;101051.44;5095683;28;20026;-64
2023/07/21 02:25:04;;;;;;;10.80;9.80;;;;;;;14.08;80.53;101049.00;5094051;28;20027;-64
2023/07/21 02:27:30;;;;;;;10.10;9.10;;;;;;;13.82;81.21;101036.72;5094854;28;20027;-64
2023/07/21 02:29:56;;;;;;;10.50;9.50;;;;;;;13.96;80.96;101043.75;5112558;28;20448;-63
2023/07/21 02:32:21;;;;;;;10.63;9.68;;;;;;;13.91;80.98;101037.88;5093963;28;20018;-63
2023/07/21 02:34:47;;;;;;;9.98;9.18;;;;;;;13.95;80.81;101048.25;5112357;28;20098;-64
2023/07/21 02:37:13;;;;;;;9.82;9.02;;;;;;;13.89;80.72;101047.84;5094504;28;20059;-64
2023/07/21 02:39:38;;;;;;;9.57;8.82;;;;;;;13.82;81.00;101042.97;5111779;28;20024;-63
2023/07/21 02:42:04;;;;;;;10.70;9.70;;;;;;;13.84;81.25;101035.66;5112315;28;20031;-64
2023/07/21 02:44:30;;;;;;;9.07;8.30;;;;;;;13.84;81.34;101037.47;5112144;28;20102;-64
2023/07/21 02:46:55;;;;;;;9.85;8.95;;;;;;;13.72;82.12;101033.03;5111953;28;20023;-64
2023/07/21 02:49:20;;;;;;;10.68;9.68;;;;;;;13.77;82.03;101030.88;5112077;28;20051;-64
2023/07/21 02:51:46;;;;;;;9.70;8.73;;;;;;;13.86;81.44;101031.06;5112264;28;20015;-64
2023/07/21 02:54:11;;;;;;;10.13;9.23;;;;;;;13.81;81.70;101029.69;5093590;28;20084;-64
2023/07/21 02:56:37;;;;;;;6.70;6.03;;;;;;;14.04;81.16;101030.66;5093992;28;20016;-64
2023/07/21 02:59:03;;;;;;;10.07;9.18;;;;;;;13.85;81.43;101033.81;5093715;28;20023;-64
2023/07/21 03:01:29;;;;;;;10.07;9.07;;;;;;;13.75;81.97;101033.66;5111898;28;20019;-64
2023/07/21 03:03:55;;;;;;;10.43;9.40;;;;;;;13.61;82.60;101034.66;5093613;28;20047;-64
2023/07/21 03:06:21;;;;;;;10.15;9.25;;;;;;;13.69;82.18;101025.25;5112180;28;20023;-63
2023/07/21 03:08:47;;;;;;;10.25;9.15;;;;;;;13.63;81.69;101032.75;5111614;28;20081;-63
2023/07/21 03:11:13;;;;;;;9.98;9.13;;;;;;;13.60;81.93;101030.28;5094189;28;20020;-64
2023/07/21 03:13:43;;;;;;;9.73;8.88;;;;;;;13.57;81.94;101025.16;5111903;28;20096;-64
2023/07/21 03:16:09;;;;;;;9.68;8.80;;;;;;;13.60;81.59;101034.78;5111818;28;20031;-63
2023/07/21 03:18:34;;;;;;;9.88;9.10;;;;;;;13.59;81.55;101033.94;5112050;28;20049;-64
2023/07/21 03:20:59;;;;;;;10.07;9.38;;;;;;;13.52;81.49;101030.00;5112106;28;20027;-64
2023/07/21 03:23:25;;;;;;;10.20;9.40;;;;;;;13.53;81.75;101036.19;5112017;28;20027;-64
2023/07/21 03:25:51;;;;;;;10.23;9.15;;;;;;;13.48;81.75;101028.50;5097959;28;20027;-64
2023/07/21 03:28:21;;;;;;;10.00;9.10;;;;;;;13.44;81.84;101023.50;5116601;28;20049;-63
2023/07/21 03:30:58;;;;;;;9.80;8.90;;;;;;;13.42;82.23;101030.78;5097459;28;20417;-64
2023/07/21 03:33:24;;;;;;;10.57;9.68;;;;;;;13.38;81.90;101030.13;5097565;28;20028;-64
2023/07/21 03:36:02;;;;;;;11.10;10.13;;;;;;;13.45;82.13;101038.56;5115949;28;20019;-64
2023/07/21 03:38:31;;;;;;;10.63;9.73;;;;;;;13.35;82.13;101033.91;5115466;28;20030;-64
2023/07/21 03:41:06;;;;;;;10.88;9.98;;;;;;;13.38;82.28;101032.78;5097630;28;20080;-63
2023/07/21 03:43:31;;;;;;;11.95;10.95;;;;;;;13.15;82.80;101003.22;5115534;28;20373;-64
2023/07/21 03:46:02;;;;;;;11.55;10.45;;;;;;;13.35;82.34;101017.88;5115840;28;20016;-63
2023/07/21 03:48:30;;;;;;;11.98;10.95;;;;;;;13.16;83.05;101031.63;5115733;28;20038;-64
2023/07/21 03:51:06;;;;;;;12.07;10.97;;;;;;;13.25;83.01;101038.19;5115846;28;20028;-63
2023/07/21 03:53:32;;;;;;;11.68;10.60;;;;;;;13.03;83.46;101024.59;5114962;28;20291;-64
2023/07/21 03:55:58;;;;;;;11.90;10.90;;;;;;;13.15;83.03;101018.41;5115499;28;20023;-64
2023/07/21 03:58:24;;;;;;;11.10;10.30;;;;;;;13.13;83.18;101026.50;5115156;28;20023;-63
2023/07/21 04:00:50;;;;;;;11.45;10.48;;;;;;;13.11;83.02;101030.25;5115486;28;20024;-64
2023/07/21 04:03:17;;;;;;;11.95;10.85;;;;;;;13.12;83.14;101024.81;5115843;28;20016;-64
2023/07/21 04:05:42;;;;;;;11.95;11.00;;;;;;;13.10;83.52;101029.41;5060627;28;20514;-64
2023/07/21 04:08:08;;;;;;;12.52;10.75;;;;;;;13.11;83.25;101024.91;5095030;28;20056;-63
2023/07/21 04:10:33;;;;;;;12.32;11.13;;;;;;;13.01;83.85;101018.53;5094275;28;20028;-64
2023/07/21 04:12:59;;;;;;;12.38;11.27;;;;;;;13.11;84.05;101014.22;5075900;28;20040;-63
2023/07/21 04:15:27;;;;;;;11.95;10.98;;;;;;;13.18;83.64;101016.38;5094595;28;20020;-64
2023/07/21 04:17:53;;;;;;;13.98;12.45;;;;;;;13.00;84.16;101008.78;5094514;28;20024;-64
2023/07/21 04:20:19;;;;;;;12.43;11.52;;;;;;;13.14;83.93;101006.84;5094923;28;20458;-64
2023/07/21 04:22:45;;;;;;;13.65;12.55;;;;;;;12.99;84.83;101005.28;5076478;28;20023;-64
2023/07/21 04:25:11;;;;;;;14.13;12.73;;;;;;;12.96;85.14;101003.66;5093665;28;20062;-64
2023/07/21 04:27:37;;;;;;;15.23;14.05;;;;;;;13.03;85.74;101005.91;5094236;28;20055;-64
2023/07/21 04:30:03;;;;;;;15.80;14.15;;;;;;;13.09;85.30;101001.00;5076148;28;20490;-64
2023/07/21 04:32:28;;;;;;;14.93;13.52;;;;;;;13.12;85.13;101000.78;5094320;28;20024;-65
2023/07/21 04:34:54;;;;;;;15.90;14.52;;;;;;;13.20;85.00;101000.22;5075515;28;20077;-65
2023/07/21 04:37:20;;;;;;;15.88;14.35;;;;;;;13.29;85.31;101006.75;5094262;28;20081;-65
2023/07/21 04:39:45;;;;;;;16.13;14.57;;;;;;;13.27;85.62;100998.03;5094106;28;20733;-65
2023/07/21 04:42:11;;;;;;;16.20;14.90;;;;;;;13.30;85.99;101006.66;5094151;28;20524;-65
2023/07/21 04:44:36;;;;;;;16.25;14.77;;;;;;;13.30;86.02;100997.78;5094229;28;20054;-65
2023/07/21 04:47:05;;;;;;;16.48;14.98;;;;;;;13.31;86.54;101007.50;5094255;28;20024;-65
2023/07/21 04:49:31;;;;;;;16.35;14.68;;;;;;;13.44;86.20;100999.44;5094291;28;20024;-65
2023/07/21 04:51:58;;;;;;;17.40;15.90;;;;;;;13.53;86.14;101005.00;5059121;28;20390;-64
2023/07/21 04:54:24;;;;;;;17.58;15.85;;;;;;;13.40;86.76;101004.16;5093605;28;20016;-65
2023/07/21 04:56:50;;;;;;;18.15;16.30;;;;;;;13.49;86.62;100995.47;5093802;28;20020;-65
2023/07/21 04:59:16;;;;;;;17.13;15.57;;;;;;;13.52;86.82;100983.72;5107971;28;20355;-65
2023/07/21 05:01:44;;;;;;;18.45;16.77;;;;;;;13.61;87.29;100997.25;5096307;28;20023;-64
2023/07/21 05:04:10;;;;;;;19.10;17.50;;;;;;;13.70;86.54;100984.19;5095757;28;20110;-65
2023/07/21 05:06:35;;;;;;;19.23;17.40;;;;;;;13.79;86.57;100997.69;5095899;28;20111;-65
2023/07/21 05:09:01;;;;;;;18.15;16.45;;;;;;;13.97;86.31;100995.50;5113585;28;20032;-65
2023/07/21 05:11:26;;;;;;;18.85;17.05;;;;;;;13.95;86.26;100983.22;5095672;28;20438;-64
2023/07/21 05:13:52;;;;;;;19.42;17.35;;;;;;;13.99;86.92;100993.53;5113875;28;20052;-65
2023/07/21 05:16:17;;;;;;;17.95;16.30;;;;;;;14.12;86.71;100997.97;5113955;28;20102;-65
2023/07/21 05:18:43;;;;;;;19.25;17.55;;;;;;;14.17;86.34;100996.66;5095797;28;20110;-64
2023/07/21 05:21:08;;;;;;;19.35;17.65;;;;;;;14.17;86.23;100990.47;5113898;28;20042;-65
2023/07/21 05:23:34;;;;;;;18.98;17.38;;;;;;;14.24;86.29;100989.88;5113375;28;20061;-64
2023/07/21 05:26:00;;;;;;;19.25;17.35;;;;;;;14.32;85.88;100992.84;5095190;28;20023;-65
2023/07/21 05:28:29;;;;;;;20.10;18.50;;;;;;;14.39;85.39;100998.56;5113879;28;20015;-65
2023/07/21 05:30:55;;;;;;;20.37;18.53;;;;;;;14.39;85.57;100990.53;5113823;28;20043;-65
2023/07/21 05:33:20;;;;;;;20.60;18.90;;;;;;;14.47;85.88;100998.84;5095547;28;20495;-64
2023/07/21 05:35:46;;;;;;;20.02;18.33;;;;;;;14.62;85.16;101004.84;5113614;28;20084;-65
2023/07/21 05:38:13;;;;;;;18.08;16.58;;;;;;;14.75;84.56;100997.56;5113736;28;20019;-64
2023/07/21 05:40:39;;;;;;;18.35;16.75;;;;;;;14.82;83.80;101000.59;5094556;28;20034;-65
2023/07/21 05:43:05;;;;;;;18.83;17.13;;;;;;;14.93;83.44;101002.44;5113548;28;20015;-64
2023/07/21 05:45:30;;;;;;;17.92;16.33;;;;;;;14.94;82.45;100991.63;5113344;28;20532;-65
2023/07/21 05:47:55;;;;;;;19.48;17.80;;;;;;;15.02;82.31;100998.19;5094555;28;20028;-64
2023/07/21 05:50:23;;;;;;;18.23;16.73;;;;;;;15.19;81.86;101000.38;5113249;28;20390;-65
2023/07/21 05:52:50;;;;;;;18.00;16.30;;;;;;;15.24;83.32;100995.50;5113360;28;20032;-64
2023/07/21 05:55:16;;;;;;;17.27;15.88;;;;;;;15.28;82.21;100999.63;5094445;28;20027;-65
2023/07/21 05:57:42;;;;;;;17.17;15.57;;;;;;;15.29;82.08;100997.78;5113299;28;20084;-65
2023/07/21 06:00:12;;;;;;;17.33;15.90;;;;;;;15.31;83.13;101002.06;5113028;28;20022;-65
2023/07/21 06:02:38;;;;;;;18.10;16.33;;;;;;;15.48;83.04;101007.91;5113197;28;20524;-64
2023/07/21 06:05:03;;;;;;;18.33;16.75;;;;;;;15.54;82.36;101000.19;5112762;28;20031;-65
2023/07/21 06:07:29;;;;;;;19.13;17.20;;;;;;;15.48;82.63;101007.91;5113010;28;20020;-65
2023/07/21 06:09:54;;;;;;;17.25;15.60;;;;;;;15.48;81.40;101006.06;5112210;28;20023;-65
2023/07/21 06:12:21;;;;;;;18.20;16.60;;;;;;;15.67;81.57;101008.97;5112984;28;20051;-65
2023/07/21 06:14:46;;;;;;;17.17;15.68;;;;;;;15.77;83.08;101005.56;5112755;28;20130;-65
2023/07/21 06:17:12;;;;;;;18.13;16.50;;;;;;;15.82;80.18;100998.81;5113018;28;20100;-65
2023/07/21 06:19:38;;;;;;;16.10;14.80;;;;;;;15.88;79.66;100998.31;5112553;28;20442;-65
2023/07/21 06:22:03;;;;;;;17.48;16.00;;;;;;;16.00;78.91;100998.25;5112582;28;20080;-65
2023/07/21 06:24:29;;;;;;;18.05;16.45;;;;;;;16.10;80.13;100999.19;5111956;28;20106;-65
2023/07/21 06:26:54;;;;;;;17.25;15.65;;;;;;;16.30;79.34;101002.91;5112396;28;20019;-64
2023/07/21 06:29:20;;;;;;;18.55;16.77;;;;;;;16.40;79.48;101002.94;5112659;28;20470;-65
2023/07/21 06:31:45;;;;;;;17.35;15.73;;;;;;;16.46;78.69;101003.28;5112762;28;20028;-64
2023/07/21 06:34:11;;;;;;;17.83;16.13;;;;;;;16.46;79.93;101005.97;5094146;28;20031;-65
2023/07/21 06:36:36;;;;;;;18.92;17.05;;;;;;;16.45;78.78;101003.41;5112557;28;20024;-65
2023/07/21 06:39:02;;;;;;;21.25;17.05;;;;;;;16.39;78.27;100998.56;5111740;28;20479;-65
2023/07/21 06:41:27;;;;;;;17.52;16.00;;;;;;;16.40;77.99;100997.59;5112606;28;20057;-65
2023/07/21 06:43:53;;;;;;;18.13;16.20;;;;;;;16.42;78.47;100993.78;5112076;28;20073;-65
2023/07/21 06:46:21;;;;;;;18.15;16.50;;;;;;;16.51;78.36;100995.69;5112464;28;20020;-65
2023/07/21 06:48:46;;;;;;;18.73;17.08;;;;;;;16.61;78.52;100998.41;5093971;28;20417;-65
2023/07/21 06:51:12;;;;;;;18.35;16.55;;;;;;;16.63;78.93;100984.88;5112500;28;20027;-65
2023/07/21 06:53:37;;;;;;;18.80;16.85;;;;;;;16.74;78.79;100995.53;5076480;28;20072;-65
2023/07/21 06:56:03;;;;;;;19.17;17.25;;;;;;;16.82;78.46;100993.06;5112241;28;20019;-65
2023/07/21 06:58:28;;;;;;;18.27;16.48;;;;;;;16.77;77.78;100988.09;5112128;28;20024;-65
2023/07/21 07:00:57;;;;;;;18.27;16.48;;;;;;;16.90;77.71;100989.72;5112185;28;20467;-65
2023/07/21 07:03:26;;;;;;;19.02;16.83;;;;;;;17.02;77.45;100991.31;5112149;28;20027;-65
2023/07/21 07:05:51;;;;;;;18.73;16.48;;;;;;;17.20;77.34;100992.38;5112006;28;20043;-64
2023/07/21 07:08:17;;;;;;;18.42;16.88;;;;;;;17.17;76.92;100983.72;5111914;28;20458;-64
2023/07/21 07:10:47;;;;;;;19.20;17.33;;;;;;;17.28;76.40;100991.69;5093674;28;20036;-64
2023/07/21 07:13:12;;;;;;;18.52;16.75;;;;;;;17.22;77.97;100987.72;5093752;28;20046;-64
2023/07/21 07:15:38;;;;;;;19.60;17.70;;;;;;;17.29;76.33;100977.25;5111204;28;20027;-64
2023/07/21 07:18:09;;;;;;;18.88;17.10;;;;;;;17.46;76.43;100986.50;5092449;28;20394;-64
2023/07/21 07:20:34;;;;;;;18.65;17.00;;;;;;;17.57;76.90;100982.84;5110994;28;20011;-64
2023/07/21 07:22:59;;;;;;;21.58;19.35;;;;;;;17.52;76.03;100972.50;5092671;28;20012;-64
2023/07/21 07:25:25;;;;;;;20.55;18.75;;;;;;;17.70;77.66;100975.38;5110554;28;20504;-64
2023/07/21 07:27:56;;;;;;;22.70;20.65;;;;;;;17.86;76.04;100978.41;5110922;28;20030;-64
2023/07/21 07:30:21;;;;;;;21.73;19.70;;;;;;;18.15;75.01;100982.94;5111138;28;20023;-64
2023/07/21 07:32:47;;;;;;;24.15;21.63;;;;;;;18.38;73.89;100989.72;5111943;28;20038;-64
2023/07/21 07:35:12;;;;;;;24.58;22.38;;;;;;;18.52;72.98;100985.69;5111733;28;20497;-64
2023/07/21 07:37:37;;;;;;;23.13;20.77;;;;;;;18.68;71.46;100982.41;5111778;28;20073;-64
2023/07/21 07:40:06;;;;;;;24.02;21.52;;;;;;;18.74;70.40;100975.63;5111223;28;20015;-64
2023/07/21 07:42:32;;;;;;;22.33;20.13;;;;;;;18.87;69.89;100992.31;5111974;28;20069;-65
2023/07/21 07:44:59;;;;;;;21.65;19.55;;;;;;;18.90;68.66;100986.63;5111570;28;20031;-65
2023/07/21 07:47:25;;;;;;;18.63;16.75;;;;;;;19.15;69.51;100995.91;5111858;28;20024;-65
2023/07/21 07:49:51;;;;;;;18.50;16.55;;;;;;;19.16;67.78;100986.81;5111404;28;20489;-65
2023/07/21 07:52:18;;;;;;;19.95;17.90;;;;;;;19.25;65.74;101001.22;5093717;28;20038;-65
2023/07/21 07:54:44;;;;;;;18.35;16.60;;;;;;;19.23;64.82;100997.81;5111440;28;20031;-65
2023/07/21 07:57:10;;;;;;;18.42;16.67;;;;;;;19.28;65.58;100992.84;5111582;28;20117;-64
2023/07/21 07:59:35;;;;;;;18.52;16.80;;;;;;;19.41;66.36;100998.75;5093163;28;20051;-65
2023/07/21 08:02:00;;;;;;;21.33;17.92;;;;;;;19.44;66.43;100994.88;5093475;28;20024;-65
2023/07/21 08:04:26;;;;;;;18.98;17.15;;;;;;;19.54;65.14;101002.94;5111400;28;20503;-64
2023/07/21 08:06:51;;;;;;;19.00;17.08;;;;;;;19.52;64.51;100993.13;5111528;28;20049;-64
2023/07/21 08:09:17;;;;;;;19.35;17.35;;;;;;;19.57;65.34;100989.13;5093087;28;20035;-64
2023/07/21 08:11:42;;;;;;;19.08;17.17;;;;;;;19.56;64.37;100990.13;5115349;28;20067;-64
2023/07/21 08:14:08;;;;;;;19.15;17.40;;;;;;;19.55;63.79;100986.56;5114760;28;20137;-65
2023/07/21 08:16:35;;;;;;;16.23;14.55;;;;;;;19.60;62.39;100994.22;5097016;28;20031;-64
2023/07/21 08:19:01;;;;;;;17.45;15.45;;;;;;;19.58;62.37;100988.97;5114883;28;20168;-64
2023/07/21 08:21:27;;;;;;;16.92;15.32;;;;;;;19.86;63.36;100997.91;5096955;28;20517;-64
2023/07/21 08:23:55;;;;;;;14.57;13.23;;;;;;;19.88;61.24;100984.25;5096357;28;20035;-64
2023/07/21 08:26:21;;;;;;;14.88;12.85;;;;;;;19.93;60.43;100977.38;5115109;28;20030;-65
2023/07/21 08:28:47;;;;;;;12.75;11.45;;;;;;;20.02;58.45;100989.09;5114776;28;20023;-65
2023/07/21 08:31:13;;;;;;;13.68;12.38;;;;;;;20.04;59.67;100987.13;5115148;28;20062;-64
2023/07/21 08:33:40;;;;;;;16.30;14.68;;;;;;;20.11;61.41;100988.16;5114649;28;20062;-64
2023/07/21 08:36:05;;;;;;;17.00;15.40;;;;;;;20.09;60.76;100986.63;5114865;28;20465;-64
2023/07/21 08:38:35;;;;;;;16.23;14.38;;;;;;;20.13;61.72;100980.78;5095877;28;20065;-64
2023/07/21 08:41:06;;;;;;;17.63;15.55;;;;;;;20.30;60.45;100995.28;5114631;28;20125;-64
2023/07/21 08:43:32;;;;;;;17.60;15.30;;;;;;;20.18;58.81;100988.41;5114613;28;20306;-64
2023/07/21 08:46:09;;;;;;;14.50;13.10;;;;;;;20.42;59.55;100994.00;5114596;28;20019;-64
2023/07/21 08:48:34;;;;;;;17.95;15.00;;;;;;;20.56;59.35;100997.16;5095990;28;20028;-69
2023/07/21 08:51:01;;;;;;;36.40;16.73;;;;;;;20.57;57.95;100994.31;5114568;28;20034;-62
2023/07/21 08:53:26;;;;;;;15.88;14.23;;;;;;;20.67;58.70;100988.78;5113900;28;20543;-62
2023/07/21 08:55:57;;;;;;;15.98;14.48;;;;;;;20.64;58.76;101000.78;5096108;28;20033;-62
2023/07/21 08:58:23;;;;;;;18.80;15.35;;;;;;;20.60;59.23;101004.81;5114245;28;20020;-62
2023/07/21 09:00:50;;;;;;;16.83;15.10;;;;;;;20.34;59.49;100991.25;5096203;28;20019;-62
2023/07/21 09:03:27;;;;;;;16.33;14.73;;;;;;;20.35;60.86;100992.97;5114281;28;20020;-62
2023/07/21 09:05:56;;;;;;;15.70;14.00;;;;;;;20.17;58.95;101003.75;5114747;28;20031;-62
2023/07/21 09:08:31;;;;;;;14.07;12.68;;;;;;;20.09;59.55;100998.31;5113621;28;20381;-62
2023/07/21 09:11:04;;;;;;;17.13;15.07;;;;;;;19.88;59.54;101003.16;5114080;28;20031;-62
2023/07/21 09:13:31;;;;;;;16.88;15.27;;;;;;;19.88;59.76;101000.44;5113794;28;20024;-62
2023/07/21 09:16:01;;;;;;;18.13;16.40;;;;;;;19.69;60.47;100998.75;5114014;28;20034;-62
2023/07/21 09:18:41;;;;;;;18.17;16.45;;;;;;;19.67;60.75;100998.88;5113376;28;20530;-62
2023/07/21 09:21:07;;;;;;;19.23;17.23;;;;;;;19.90;60.82;100993.88;5112751;28;20486;-62
2023/07/21 09:23:33;;;;;;;22.15;17.33;;;;;;;20.12;59.98;100987.19;5113532;28;20420;-62
2023/07/21 09:26:00;;;;;;;20.98;18.80;;;;;;;20.35;60.05;100990.25;5113827;28;20533;-63
2023/07/21 09:28:39;;;;;;;23.73;21.30;;;;;;;20.46;58.90;100991.00;5113734;28;20032;-64
2023/07/21 09:31:05;;;;;;;22.65;20.38;;;;;;;20.78;58.38;100988.53;5113729;28;20024;-64
2023/07/21 09:33:32;;;;;;;22.67;20.38;;;;;;;20.85;57.14;100986.03;5094985;28;20034;-62
2023/07/21 09:36:24;;;;;;;23.05;20.75;;;;;;;21.07;57.97;100976.53;5095236;28;20031;-65
2023/07/21 09:38:50;;;;;;;22.15;19.85;;;;;;;21.14;56.95;100984.84;5109298;28;20063;-65
2023/07/21 09:41:25;;;;;;;22.08;19.88;;;;;;;21.16;57.17;100975.56;5095362;28;20019;-65
2023/07/21 09:43:51;;;;;;;25.63;21.88;;;;;;;21.37;55.58;100969.75;5113350;28;20387;-65
2023/07/21 09:46:17;;;;;;;23.55;21.10;;;;;;;21.36;55.39;100968.06;5113142;28;20023;-66
2023/07/21 09:48:44;;;;;;;23.65;19.67;;;;;;;21.36;55.07;100961.78;5113413;28;20030;-65
2023/07/21 09:51:10;;;;;;;20.63;18.52;;;;;;;21.31;55.45;100956.84;5113309;28;20140;-65
2023/07/21 09:53:43;;;;;;;21.98;19.63;;;;;;;21.52;55.31;100964.53;5112725;28;20031;-65
2023/07/21 09:56:09;;;;;;;17.13;15.45;;;;;;;21.44;52.74;100970.78;5094852;28;20020;-65
2023/07/21 09:59:00;;;;;;;15.75;14.15;;;;;;;21.40;53.66;100961.28;5094565;28;20035;-65
2023/07/21 10:01:26;;;;;;;14.23;12.88;;;;;;;21.32;54.08;100967.50;5101421;28;20456;-65
2023/07/21 10:03:52;;;;;;;16.15;14.65;;;;;;;21.17;54.11;100969.13;5112960;28;20015;-65
2023/07/21 10:06:19;;;;;;;15.82;14.23;;;;;;;21.06;54.14;100958.59;5112897;28;20032;-65
2023/07/21 10:08:45;;;;;;;16.27;14.77;;;;;;;21.03;53.92;100970.59;5112520;28;20104;-65
2023/07/21 10:11:12;;;;;;;17.85;15.73;;;;;;;20.77;54.63;100973.34;5094513;28;20046;-65
2023/07/21 10:13:47;;;;;;;17.95;16.13;;;;;;;20.68;54.95;100979.69;5112542;28;20016;-65
2023/07/21 10:16:13;;;;;;;14.48;12.95;;;;;;;20.58;57.58;100978.94;5077478;28;20435;-65
2023/07/21 10:18:58;;;;;;;16.65;14.95;;;;;;;20.56;59.37;100979.13;5112432;28;20183;-65
2023/07/21 10:21:29;;;;;;;18.75;16.00;;;;;;;20.36;63.83;100978.44;5113227;28;20019;-65
2023/07/21 10:23:54;;;;;;;17.23;15.52;;;;;;;20.23;64.31;100971.72;5112189;28;20027;-66
2023/07/21 10:26:20;;;;;;;19.75;17.75;;;;;;;20.08;65.79;100971.44;5112708;28;20080;-66
2023/07/21 10:28:46;;;;;;;20.95;18.85;;;;;;;19.96;71.07;100970.81;5094305;28;20430;-66
2023/07/21 10:31:20;;;;;;;24.55;21.77;;;;;;;19.78;71.04;100986.19;5094251;28;20023;-66
2023/07/21 10:34:10;;;;;;;24.35;22.05;;;;;;;19.72;72.45;100985.78;5093892;28;20490;-66
2023/07/21 10:36:53;;;;;;;;;;;;;;;19.87;69.23;100993.34;5112911;28;20055;-65
2023/07/21 10:39:20;;;;;;;41.20;27.08;;;;;;;19.37;81.34;101008.13;5111790;28;19958;-65
2023/07/21 10:41:58;;;;;;;43.30;31.40;;;;;;;19.14;83.61;101020.28;5112549;28;20027;-65
2023/07/21 10:44:30;;;;;;;21.25;17.48;;;;;;;18.66;76.57;100999.72;5094021;28;20049;-65
2023/07/21 10:46:56;;;;;;;20.13;18.13;;;;;;;18.34;75.44;100984.75;5112229;28;20028;-66
2023/07/21 10:49:22;;;;;;;21.75;19.52;;;;;;;18.29;82.24;100992.41;5112210;28;20031;-66
2023/07/21 10:51:49;;;;;;;25.80;23.45;;;;;;;18.21;86.01;100993.13;5112223;28;20019;-66
2023/07/21 10:54:15;;;;;;;27.20;24.63;;;;;;;18.11;85.20;101000.34;5111756;28;20428;-66
2023/07/21 10:56:46;;;;;;;30.23;27.33;;;;;;;17.94;85.64;101007.28;5093956;28;20176;-66
2023/07/21 10:59:13;;;;;;;22.10;20.08;;;;;;;18.03;81.47;101006.47;5112025;28;20031;-66
2023/07/21 11:01:56;;;;;;;19.10;17.25;;;;;;;18.03;82.44;101013.66;5093964;28;20031;-66
2023/07/21 11:04:22;;;;;;;13.52;12.15;;;;;;;17.78;78.08;101015.91;5093697;28;20451;-66
2023/07/21 11:06:51;;;;;;;15.15;12.25;;;;;;;17.69;82.61;101014.88;5112089;28;20032;-66
2023/07/21 11:09:17;;;;;;;12.63;11.53;;;;;;;17.57;83.28;101015.97;5093246;28;20027;-66
2023/07/21 11:11:47;;;;;;;13.35;12.15;;;;;;;17.51;84.68;101013.00;5093961;28;20050;-66
2023/07/21 11:14:21;;;;;;;14.57;13.18;;;;;;;17.58;86.44;101016.81;5093248;28;20040;-66
2023/07/21 11:16:55;;;;;;;13.25;11.95;;;;;;;17.61;84.66;101019.25;5112311;28;20046;-66